Time;durP1;ratioP1;P1;durP2;ratioP2;P2;SDS_P1;SDS_P2;PMS_P1;PMS_P2;Temp;Humidity;BMP_temperature;BMP_pressure;BME280_temperature;BME280_humidity;BME280_pressure;Samples;Min_cycle;Max_cycle;Signal;HPM_P1;HPM_P2
2023/08/25 00:01:58;;;;;;;20.27;13.73;;;;;;;;;;5050932;28;20470;-68
2023/08/25 00:04:25;;;;;;;23.17;14.07;;;;;;;;;;5046420;28;20443;-68
2023/08/25 00:06:53;;;;;;;21.02;15.20;;;;;;;;;;5053227;28;20440;-68
2023/08/25 00:09:20;;;;;;;25.73;15.15;;;;;;;;;;5029883;28;20526;-68
2023/08/25 00:11:47;;;;;;;25.70;14.77;;;;;;;;;;5052009;28;20444;-68
2023/08/25 00:14:14;;;;;;;19.13;13.63;;;;;;;;;;5046591;28;20436;-68
2023/08/25 00:16:42;;;;;;;269.60;242.40;;;;;;;;;;5048439;28;20479;-68
2023/08/25 00:19:09;;;;;;;16.80;11.48;;;;;;;;;;5050814;28;20760;-68
2023/08/25 00:21:36;;;;;;;18.63;12.50;;;;;;;;;;5064554;28;20435;-68
2023/08/25 00:24:03;;;;;;;13.95;10.70;;;;;;;;;;5052997;28;21095;-68
2023/08/25 00:26:31;;;;;;;14.50;10.98;;;;;;;;;;5044999;28;20437;-68
2023/08/25 00:28:58;;;;;;;13.95;11.60;;;;;;;;;;5058391;28;20934;-68
2023/08/25 00:31:26;;;;;;;15.25;10.82;;;;;;;;;;5049259;28;20439;-68
2023/08/25 00:33:53;;;;;;;14.95;11.88;;;;;;;;;;5033236;28;20463;-68
2023/08/25 00:36:20;;;;;;;18.10;11.95;;;;;;;;;;5051257;28;20432;-68
2023/08/25 00:38:47;;;;;;;17.13;11.75;;;;;;;;;;5050849;28;20431;-68
2023/08/25 00:41:15;;;;;;;13.82;10.60;;;;;;;;;;5049859;28;20466;-68
2023/08/25 00:43:42;;;;;;;21.80;12.82;;;;;;;;;;5062935;28;20898;-68
2023/08/25 00:46:09;;;;;;;15.95;11.15;;;;;;;;;;5048186;28;20433;-68
2023/08/25 00:48:37;;;;;;;18.20;12.07;;;;;;;;;;5033369;28;20440;-68
2023/08/25 00:51:05;;;;;;;14.85;11.35;;;;;;;;;;5049054;28;20430;-68
2023/08/25 00:53:36;;;;;;;16.00;12.43;;;;;;;;;;5033935;28;20489;-69
2023/08/25 00:56:03;;;;;;;21.27;13.57;;;;;;;;;;5048486;28;20430;-69
2023/08/25 00:58:30;;;;;;;22.45;14.73;;;;;;;;;;5048530;28;20439;-69
2023/08/25 01:01:01;;;;;;;23.55;14.55;;;;;;;;;;5040039;28;20451;-69
2023/08/25 01:03:28;;;;;;;22.63;14.45;;;;;;;;;;5048072;28;20978;-68
2023/08/25 01:05:56;;;;;;;19.40;13.05;;;;;;;;;;5032473;28;20449;-68
2023/08/25 01:08:24;;;;;;;26.95;13.20;;;;;;;;;;5050256;28;20503;-69
2023/08/25 01:10:58;;;;;;;19.83;12.80;;;;;;;;;;5049264;28;20431;-69
2023/08/25 01:13:45;;;;;;;19.52;13.57;;;;;;;;;;5047842;28;20462;-69
2023/08/25 01:16:16;;;;;;;22.30;14.88;;;;;;;;;;4992310;28;20433;-69
2023/08/25 01:18:46;;;;;;;19.17;14.35;;;;;;;;;;5030379;28;20423;-69
2023/08/25 01:21:15;;;;;;;19.85;14.07;;;;;;;;;;5034126;28;20444;-68
2023/08/25 01:24:03;;;;;;;19.13;12.25;;;;;;;;;;5031094;28;22834;-69
2023/08/25 01:26:30;;;;;;;18.20;12.90;;;;;;;;;;5032556;28;20454;-68
2023/08/25 01:28:57;;;;;;;17.60;13.57;;;;;;;;;;5028394;28;20433;-68
2023/08/25 01:31:25;;;;;;;17.83;13.32;;;;;;;;;;5034008;28;21016;-68
2023/08/25 01:33:53;;;;;;;28.75;17.27;;;;;;;;;;5033112;28;20437;-68
2023/08/25 01:36:34;;;;;;;27.50;16.98;;;;;;;;;;5030145;28;20448;-68
2023/08/25 01:39:01;;;;;;;25.80;16.10;;;;;;;;;;5029689;28;20433;-68
2023/08/25 01:41:47;;;;;;;25.67;16.00;;;;;;;;;;5030382;28;20429;-69
2023/08/25 01:44:15;;;;;;;28.23;16.92;;;;;;;;;;5031614;28;22580;-68
2023/08/25 01:46:46;;;;;;;28.77;17.30;;;;;;;;;;5032525;28;22503;-68
2023/08/25 01:49:14;;;;;;;32.13;17.98;;;;;;;;;;5012510;28;20431;-69
2023/08/25 01:51:47;;;;;;;27.10;16.30;;;;;;;;;;5014736;28;20437;-68
2023/08/25 01:54:14;;;;;;;22.00;14.05;;;;;;;;;;5034394;28;20436;-68
2023/08/25 01:56:41;;;;;;;22.23;13.75;;;;;;;;;;5028749;28;21016;-68
2023/08/25 01:59:08;;;;;;;21.30;13.95;;;;;;;;;;5029316;28;20446;-68
2023/08/25 02:01:36;;;;;;;18.75;12.95;;;;;;;;;;5030789;28;20597;-68
2023/08/25 02:04:03;;;;;;;19.00;13.10;;;;;;;;;;5029325;28;20439;-68
2023/08/25 02:06:30;;;;;;;19.30;13.48;;;;;;;;;;5033085;28;20433;-68
2023/08/25 02:08:57;;;;;;;17.25;12.40;;;;;;;;;;5031984;28;20429;-68
2023/08/25 02:11:24;;;;;;;16.30;11.93;;;;;;;;;;5029250;28;20563;-68
2023/08/25 02:13:51;;;;;;;17.23;11.77;;;;;;;;;;5029510;28;20561;-69
2023/08/25 02:16:18;;;;;;;15.35;10.70;;;;;;;;;;5031946;28;20495;-69
2023/08/25 02:18:52;;;;;;;13.75;10.77;;;;;;;;;;5027810;28;20476;-69
2023/08/25 02:21:22;;;;;;;17.60;12.00;;;;;;;;;;5035294;28;20437;-69
2023/08/25 02:23:49;;;;;;;15.18;11.57;;;;;;;;;;5031251;28;20543;-69
2023/08/25 02:26:16;;;;;;;16.55;12.35;;;;;;;;;;5016760;28;20425;-69
2023/08/25 02:28:43;;;;;;;12.95;10.65;;;;;;;;;;5033770;28;20474;-69
2023/08/25 02:31:11;;;;;;;15.00;11.68;;;;;;;;;;5033163;28;20551;-68
2023/08/25 02:33:38;;;;;;;14.95;11.48;;;;;;;;;;5034027;28;20433;-69
2023/08/25 02:36:05;;;;;;;13.65;11.68;;;;;;;;;;5033649;28;20432;-69
2023/08/25 02:38:32;;;;;;;14.77;11.95;;;;;;;;;;5050212;28;21127;-69
2023/08/25 02:40:59;;;;;;;14.98;12.50;;;;;;;;;;5032013;28;20456;-69
2023/08/25 02:43:26;;;;;;;14.77;12.03;;;;;;;;;;5036444;28;20425;-69
2023/08/25 02:45:53;;;;;;;17.60;13.80;;;;;;;;;;5035771;28;20612;-69
2023/08/25 02:48:21;;;;;;;17.85;13.70;;;;;;;;;;5032566;28;20487;-69
2023/08/25 02:50:48;;;;;;;27.57;14.97;;;;;;;;;;5032099;28;20475;-70
2023/08/25 02:53:20;;;;;;;25.20;14.87;;;;;;;;;;5030908;28;20848;-69
2023/08/25 02:55:47;;;;;;;34.93;16.47;;;;;;;;;;5037941;28;21503;-69
2023/08/25 02:58:15;;;;;;;31.77;16.20;;;;;;;;;;5033875;28;20433;-69
2023/08/25 03:00:42;;;;;;;40.58;17.42;;;;;;;;;;5032387;28;20455;-69
2023/08/25 03:03:09;;;;;;;56.92;17.58;;;;;;;;;;5033642;28;20997;-69
2023/08/25 03:05:38;;;;;;;46.20;16.95;;;;;;;;;;5034872;28;20455;-68
2023/08/25 03:08:10;;;;;;;46.80;17.30;;;;;;;;;;5029188;28;20463;-68
2023/08/25 03:10:38;;;;;;;57.80;18.65;;;;;;;;;;5032262;28;20437;-68
2023/08/25 03:13:05;;;;;;;75.32;19.75;;;;;;;;;;5032122;28;20566;-68
2023/08/25 03:15:33;;;;;;;39.08;16.25;;;;;;;;;;5033254;28;20434;-68
2023/08/25 03:18:00;;;;;;;36.95;18.98;;;;;;;;;;5032528;28;20490;-68
2023/08/25 03:20:27;;;;;;;45.58;19.80;;;;;;;;;;5033040;28;20436;-68
2023/08/25 03:22:55;;;;;;;30.38;18.33;;;;;;;;;;5031791;28;20436;-68
2023/08/25 03:25:22;;;;;;;41.67;21.15;;;;;;;;;;5035071;28;20433;-68
2023/08/25 03:27:49;;;;;;;36.67;19.55;;;;;;;;;;5033469;28;20437;-68
2023/08/25 03:30:20;;;;;;;45.00;20.83;;;;;;;;;;5031403;28;20587;-68
2023/08/25 03:32:47;;;;;;;60.00;20.48;;;;;;;;;;5034625;28;20441;-68
2023/08/25 03:35:15;;;;;;;74.80;20.88;;;;;;;;;;5032997;28;20448;-68
2023/08/25 03:37:42;;;;;;;79.22;22.25;;;;;;;;;;5032297;28;20430;-68
2023/08/25 03:40:10;;;;;;;79.00;21.35;;;;;;;;;;5033123;28;20548;-68
2023/08/25 03:42:37;;;;;;;66.55;19.92;;;;;;;;;;5031324;28;20460;-68
2023/08/25 03:45:05;;;;;;;39.00;19.13;;;;;;;;;;5037670;28;20565;-68
2023/08/25 03:47:32;;;;;;;54.15;21.45;;;;;;;;;;5033527;28;20432;-68
2023/08/25 03:50:00;;;;;;;44.67;20.92;;;;;;;;;;5033573;28;20440;-68
2023/08/25 03:52:27;;;;;;;46.13;21.77;;;;;;;;;;5031549;28;20535;-68
2023/08/25 03:54:54;;;;;;;33.55;19.02;;;;;;;;;;5034130;28;20803;-68
2023/08/25 03:57:21;;;;;;;44.92;20.25;;;;;;;;;;5031523;28;20480;-68
2023/08/25 03:59:50;;;;;;;38.03;20.05;;;;;;;;;;5031310;28;20437;-69
2023/08/25 04:02:17;;;;;;;47.00;21.35;;;;;;;;;;5032682;28;20512;-68
2023/08/25 04:04:45;;;;;;;58.08;22.83;;;;;;;;;;5033111;28;20438;-68
2023/08/25 04:07:13;;;;;;;42.53;23.40;;;;;;;;;;5033748;28;20444;-68
2023/08/25 04:09:41;;;;;;;48.08;24.10;;;;;;;;;;5016495;28;20526;-68
2023/08/25 04:12:08;;;;;;;71.95;26.70;;;;;;;;;;5033989;28;20440;-68
2023/08/25 04:14:35;;;;;;;63.10;25.60;;;;;;;;;;5032543;28;20547;-68
2023/08/25 04:17:02;;;;;;;46.93;23.43;;;;;;;;;;5032792;28;20901;-68
2023/08/25 04:19:31;;;;;;;61.03;24.48;;;;;;;;;;5028827;28;20484;-68
2023/08/25 04:22:00;;;;;;;56.17;23.25;;;;;;;;;;5034208;28;20433;-69
2023/08/25 04:24:27;;;;;;;56.78;41.70;;;;;;;;;;5034487;28;20438;-68
2023/08/25 04:26:55;;;;;;;53.70;24.97;;;;;;;;;;5035781;28;20556;-68
2023/08/25 04:29:22;;;;;;;72.40;26.57;;;;;;;;;;5034810;28;20476;-68
2023/08/25 04:31:49;;;;;;;41.15;23.50;;;;;;;;;;5034587;28;20506;-68
2023/08/25 04:34:16;;;;;;;43.10;25.10;;;;;;;;;;5032507;28;20439;-68
2023/08/25 04:36:45;;;;;;;50.30;39.13;;;;;;;;;;5048766;28;20561;-69
2023/08/25 04:39:13;;;;;;;30.23;20.65;;;;;;;;;;5030324;28;20615;-69
2023/08/25 04:41:41;;;;;;;27.92;19.13;;;;;;;;;;5032070;28;21169;-69
2023/08/25 04:44:08;;;;;;;29.10;19.40;;;;;;;;;;5034115;28;20440;-71
2023/08/25 04:46:39;;;;;;;749.53;666.60;;;;;;;;;;5041586;28;20440;-75
2023/08/25 04:49:07;;;;;;;640.30;577.08;;;;;;;;;;5031300;28;20443;-75
2023/08/25 04:51:37;;;;;;;436.77;402.00;;;;;;;;;;5038737;28;20513;-74
2023/08/25 04:54:04;;;;;;;79.60;54.63;;;;;;;;;;5019977;28;20477;-76
2023/08/25 04:56:31;;;;;;;35.53;20.90;;;;;;;;;;5042932;28;20439;-74
2023/08/25 04:58:58;;;;;;;37.10;20.73;;;;;;;;;;5041078;28;20528;-73
2023/08/25 05:01:25;;;;;;;46.05;22.35;;;;;;;;;;5032894;28;20496;-72
2023/08/25 05:03:53;;;;;;;100.93;90.80;;;;;;;;;;5035048;28;20444;-72
2023/08/25 05:06:21;;;;;;;624.45;563.75;;;;;;;;;;5020183;28;20449;-71
2023/08/25 05:08:48;;;;;;;179.23;161.13;;;;;;;;;;5032077;28;20447;-72
2023/08/25 05:11:16;;;;;;;181.88;147.70;;;;;;;;;;5016602;28;20550;-71
2023/08/25 05:13:43;;;;;;;71.75;62.88;;;;;;;;;;5038350;28;20528;-70
2023/08/25 05:16:12;;;;;;;38.97;20.73;;;;;;;;;;5034303;28;20941;-70
2023/08/25 05:18:39;;;;;;;466.52;417.90;;;;;;;;;;5035100;28;20437;-70
2023/08/25 05:21:06;;;;;;;435.35;386.73;;;;;;;;;;5031212;28;20456;-70
2023/08/25 05:23:34;;;;;;;35.88;18.13;;;;;;;;;;5034369;28;20429;-70
2023/08/25 05:26:01;;;;;;;37.63;19.20;;;;;;;;;;5038810;28;20910;-69
2023/08/25 05:28:28;;;;;;;41.92;30.90;;;;;;;;;;5060031;28;20508;-69
2023/08/25 05:30:55;;;;;;;32.78;17.85;;;;;;;;;;5044980;28;20433;-69
2023/08/25 05:33:22;;;;;;;32.90;20.10;;;;;;;;;;5031295;28;20433;-68
2023/08/25 05:35:50;;;;;;;75.15;67.68;;;;;;;;;;5031344;28;20445;-68
2023/08/25 05:38:17;;;;;;;596.70;534.13;;;;;;;;;;5013868;28;20434;-68
2023/08/25 05:40:44;;;;;;;325.40;269.53;;;;;;;;;;5031006;28;20461;-68
2023/08/25 05:43:11;;;;;;;37.73;19.27;;;;;;;;;;5029248;28;20437;-68
2023/08/25 05:45:38;;;;;;;45.53;20.75;;;;;;;;;;5033393;28;20495;-68
2023/08/25 05:48:06;;;;;;;52.95;22.05;;;;;;;;;;5030677;28;20429;-69
2023/08/25 05:50:35;;;;;;;50.80;22.08;;;;;;;;;;4995120;28;20796;-67
2023/08/25 05:53:03;;;;;;;51.80;22.52;;;;;;;;;;5029299;28;20448;-68
2023/08/25 05:55:30;;;;;;;51.95;21.88;;;;;;;;;;5027981;28;21034;-68
2023/08/25 05:57:57;;;;;;;41.78;20.00;;;;;;;;;;5025240;28;20590;-67
2023/08/25 06:00:24;;;;;;;44.85;20.23;;;;;;;;;;5021430;28;21100;-67
2023/08/25 06:02:52;;;;;;;36.47;18.53;;;;;;;;;;5029155;28;20475;-67
2023/08/25 06:05:19;;;;;;;31.30;18.00;;;;;;;;;;5030247;28;20439;-67
2023/08/25 06:07:47;;;;;;;34.75;18.88;;;;;;;;;;5028815;28;20523;-67
2023/08/25 06:10:14;;;;;;;32.28;18.08;;;;;;;;;;5011743;28;20431;-67
2023/08/25 06:12:41;;;;;;;27.83;17.02;;;;;;;;;;5014778;28;20524;-67
2023/08/25 06:15:09;;;;;;;29.88;18.25;;;;;;;;;;5026934;28;20438;-67
2023/08/25 06:17:36;;;;;;;27.70;17.45;;;;;;;;;;5031146;28;20933;-68
2023/08/25 06:20:04;;;;;;;25.38;17.60;;;;;;;;;;5021147;28;20445;-68
2023/08/25 06:22:31;;;;;;;26.58;17.75;;;;;;;;;;5021385;28;20435;-68
2023/08/25 06:24:58;;;;;;;26.70;17.85;;;;;;;;;;5018750;28;20524;-68
2023/08/25 06:27:25;;;;;;;26.30;16.67;;;;;;;;;;5024958;28;21371;-68
2023/08/25 06:29:53;;;;;;;21.30;15.75;;;;;;;;;;5028797;28;20437;-68
2023/08/25 06:32:20;;;;;;;23.33;16.02;;;;;;;;;;5023021;28;20567;-68
2023/08/25 06:34:51;;;;;;;18.83;14.60;;;;;;;;;;5023964;28;20428;-68
2023/08/25 06:37:18;;;;;;;20.08;14.38;;;;;;;;;;5025062;28;20879;-68
2023/08/25 06:39:47;;;;;;;21.45;13.90;;;;;;;;;;5028290;28;21878;-68
2023/08/25 06:42:14;;;;;;;18.85;14.50;;;;;;;;;;5026132;28;21233;-68
2023/08/25 06:44:42;;;;;;;17.17;12.97;;;;;;;;;;5031135;28;20551;-67
2023/08/25 06:47:09;;;;;;;17.65;13.60;;;;;;;;;;5028863;28;20432;-67
2023/08/25 06:49:37;;;;;;;18.30;14.35;;;;;;;;;;5029257;28;21158;-67
2023/08/25 06:52:04;;;;;;;19.02;13.43;;;;;;;;;;5031719;28;20439;-68
2023/08/25 06:54:31;;;;;;;296.38;265.05;;;;;;;;;;5030914;28;20958;-67
2023/08/25 06:56:58;;;;;;;706.30;647.38;;;;;;;;;;5026301;28;20444;-67
2023/08/25 06:59:25;;;;;;;769.63;701.67;;;;;;;;;;5032865;28;20437;-67
2023/08/25 07:01:52;;;;;;;256.50;230.77;;;;;;;;;;5031006;28;20903;-67
2023/08/25 07:04:20;;;;;;;305.10;114.65;;;;;;;;;;5033384;28;20433;-68
2023/08/25 07:06:47;;;;;;;12.00;10.60;;;;;;;;;;5016916;28;20438;-68
2023/08/25 07:09:14;;;;;;;12.75;11.40;;;;;;;;;;5035478;28;20456;-68
2023/08/25 07:11:42;;;;;;;14.60;12.45;;;;;;;;;;5034900;28;20433;-68
2023/08/25 07:14:09;;;;;;;13.50;11.18;;;;;;;;;;5034011;28;20460;-68
2023/08/25 07:16:36;;;;;;;12.48;10.45;;;;;;;;;;5032910;28;20444;-68
2023/08/25 07:19:04;;;;;;;14.18;11.35;;;;;;;;;;5037505;28;20935;-67
2023/08/25 07:21:31;;;;;;;12.88;11.05;;;;;;;;;;5036623;28;21861;-68
2023/08/25 07:23:58;;;;;;;12.05;9.20;;;;;;;;;;5033049;28;20499;-68
2023/08/25 07:26:25;;;;;;;11.40;8.53;;;;;;;;;;5049313;28;20429;-68
2023/08/25 07:28:52;;;;;;;9.05;8.00;;;;;;;;;;5033081;28;20572;-68
2023/08/25 07:31:20;;;;;;;8.50;7.70;;;;;;;;;;5033041;28;21605;-67
2023/08/25 07:33:47;;;;;;;8.23;7.32;;;;;;;;;;5033826;28;20476;-67
2023/08/25 07:36:14;;;;;;;7.78;6.97;;;;;;;;;;5032925;28;20469;-67
2023/08/25 07:38:41;;;;;;;7.25;6.65;;;;;;;;;;5036690;28;20842;-67
2023/08/25 07:41:11;;;;;;;7.97;6.22;;;;;;;;;;5033001;28;20431;-67
2023/08/25 07:43:38;;;;;;;8.07;5.53;;;;;;;;;;5033983;28;20552;-67
2023/08/25 07:46:05;;;;;;;5.88;5.35;;;;;;;;;;5031803;28;20477;-66
2023/08/25 07:48:33;;;;;;;5.40;4.90;;;;;;;;;;5030667;28;20514;-67
2023/08/25 07:51:00;;;;;;;6.93;4.90;;;;;;;;;;5032104;28;20550;-67
2023/08/25 07:53:27;;;;;;;5.32;4.05;;;;;;;;;;5031949;28;20463;-67
2023/08/25 07:55:54;;;;;;;5.80;4.90;;;;;;;;;;5034622;28;20431;-67
2023/08/25 07:58:22;;;;;;;5.40;5.00;;;;;;;;;;5035262;28;20481;-67
2023/08/25 08:00:50;;;;;;;4.75;4.35;;;;;;;;;;5034988;28;20455;-67
2023/08/25 08:03:17;;;;;;;5.00;4.32;;;;;;;;;;5034508;28;20441;-67
2023/08/25 08:05:46;;;;;;;4.90;4.10;;;;;;;;;;5022572;28;20466;-67
2023/08/25 08:08:13;;;;;;;5.03;3.70;;;;;;;;;;5024747;28;20595;-66
2023/08/25 08:10:40;;;;;;;3.50;3.20;;;;;;;;;;5033417;28;20546;-65
2023/08/25 08:13:08;;;;;;;4.73;3.70;;;;;;;;;;5013950;28;20831;-67
2023/08/25 08:15:35;;;;;;;4.07;3.65;;;;;;;;;;5034975;28;20439;-67
2023/08/25 08:18:04;;;;;;;5.40;4.00;;;;;;;;;;5033397;28;20429;-68
2023/08/25 08:20:33;;;;;;;5.55;3.03;;;;;;;;;;5032440;28;20915;-67
2023/08/25 08:23:01;;;;;;;6.72;3.63;;;;;;;;;;5030346;28;20434;-67
2023/08/25 08:25:30;;;;;;;3.55;2.90;;;;;;;;;;5030450;28;20483;-67
2023/08/25 08:27:57;;;;;;;3.57;2.80;;;;;;;;;;5022903;28;20444;-68
2023/08/25 08:30:24;;;;;;;5.38;3.70;;;;;;;;;;5028114;28;20514;-67
2023/08/25 08:32:51;;;;;;;4.45;3.08;;;;;;;;;;5030643;28;20433;-68
2023/08/25 08:35:19;;;;;;;3.30;2.70;;;;;;;;;;5027715;28;20440;-66
2023/08/25 08:37:46;;;;;;;4.63;3.20;;;;;;;;;;5031917;28;20532;-67
2023/08/25 08:40:13;;;;;;;4.50;2.80;;;;;;;;;;5030713;28;20508;-67
2023/08/25 08:42:40;;;;;;;10.48;4.30;;;;;;;;;;5016491;28;20497;-68
2023/08/25 08:45:09;;;;;;;5.37;4.23;;;;;;;;;;5034700;28;20439;-68
2023/08/25 08:47:37;;;;;;;4.25;2.85;;;;;;;;;;5032672;28;20436;-67
2023/08/25 08:50:06;;;;;;;101.77;76.13;;;;;;;;;;5028934;28;20441;-69
2023/08/25 08:52:34;;;;;;;8.85;6.35;;;;;;;;;;5028400;28;20524;-68
2023/08/25 08:55:03;;;;;;;3.90;2.65;;;;;;;;;;5022516;28;20448;-68
2023/08/25 08:57:31;;;;;;;36.88;32.70;;;;;;;;;;5023457;28;20892;-68
2023/08/25 08:59:59;;;;;;;11.90;5.72;;;;;;;;;;5012347;28;20441;-67
2023/08/25 09:02:28;;;;;;;147.77;131.45;;;;;;;;;;5029914;28;20572;-68
2023/08/25 09:04:59;;;;;;;2.75;2.55;;;;;;;;;;5021959;28;20792;-68
2023/08/25 09:07:28;;;;;;;4.17;2.70;;;;;;;;;;5018391;28;20434;-67
2023/08/25 09:09:57;;;;;;;3.25;2.60;;;;;;;;;;5018768;28;20444;-68
2023/08/25 09:12:25;;;;;;;7.05;2.33;;;;;;;;;;5026282;28;20535;-68
2023/08/25 09:14:52;;;;;;;2.95;2.50;;;;;;;;;;5021118;28;20557;-68
2023/08/25 09:17:21;;;;;;;2.78;2.50;;;;;;;;;;5024968;28;20461;-68
2023/08/25 09:19:48;;;;;;;4.90;2.35;;;;;;;;;;5019747;28;20452;-67
2023/08/25 09:22:17;;;;;;;4.45;2.50;;;;;;;;;;5025786;28;20432;-67
2023/08/25 09:24:44;;;;;;;3.30;2.20;;;;;;;;;;5037426;28;20429;-68
2023/08/25 09:27:22;;;;;;;5.05;2.30;;;;;;;;;;5025525;28;20437;-68
2023/08/25 09:29:56;;;;;;;5.28;2.15;;;;;;;;;;5033433;28;21149;-67
2023/08/25 09:32:24;;;;;;;2.23;2.03;;;;;;;;;;5010598;28;20434;-67
2023/08/25 09:34:52;;;;;;;3.25;1.70;;;;;;;;;;5026741;28;20502;-67
2023/08/25 09:37:19;;;;;;;2.40;1.67;;;;;;;;;;5030759;28;20473;-68
2023/08/25 09:39:49;;;;;;;4.00;2.65;;;;;;;;;;5028746;28;20427;-68
2023/08/25 09:42:17;;;;;;;3.33;1.70;;;;;;;;;;5009298;28;20813;-67
2023/08/25 09:44:45;;;;;;;170.98;156.43;;;;;;;;;;5030184;28;20512;-68
2023/08/25 09:47:13;;;;;;;979.85;841.13;;;;;;;;;;5007700;28;20435;-68
2023/08/25 09:49:40;;;;;;;202.13;185.88;;;;;;;;;;5021601;28;20933;-68
2023/08/25 09:52:07;;;;;;;987.72;831.92;;;;;;;;;;5021565;28;20441;-69
2023/08/25 09:54:35;;;;;;;2.28;2.08;;;;;;;;;;5020131;28;20441;-68
2023/08/25 09:57:02;;;;;;;2.45;1.95;;;;;;;;;;5021959;28;21030;-67
2023/08/25 09:59:29;;;;;;;2.00;1.90;;;;;;;;;;5024550;28;20440;-67
2023/08/25 10:01:57;;;;;;;2.70;1.88;;;;;;;;;;5021185;28;21069;-67
2023/08/25 10:04:25;;;;;;;4.85;1.85;;;;;;;;;;5017621;28;20485;-67
2023/08/25 10:06:53;;;;;;;2.53;1.77;;;;;;;;;;5015835;28;20446;-68
2023/08/25 10:09:20;;;;;;;2.30;2.10;;;;;;;;;;5018909;28;20534;-67
2023/08/25 10:11:51;;;;;;;2.90;2.17;;;;;;;;;;5022372;28;21123;-67
2023/08/25 10:14:24;;;;;;;2.20;2.10;;;;;;;;;;5018912;28;20441;-68
2023/08/25 10:16:52;;;;;;;2.75;1.95;;;;;;;;;;5020756;28;20435;-69
2023/08/25 10:19:26;;;;;;;2.65;2.05;;;;;;;;;;5015066;28;20448;-68
2023/08/25 10:21:54;;;;;;;3.72;2.72;;;;;;;;;;5021682;28;20461;-68
2023/08/25 10:24:22;;;;;;;2.50;1.90;;;;;;;;;;5021723;28;20551;-68
2023/08/25 10:26:53;;;;;;;4.03;1.87;;;;;;;;;;5016594;28;21176;-69
2023/08/25 10:29:22;;;;;;;3.15;2.10;;;;;;;;;;5021653;28;20447;-68
2023/08/25 10:31:57;;;;;;;2.42;2.00;;;;;;;;;;5022364;28;20571;-68
2023/08/25 10:34:32;;;;;;;4.07;1.77;;;;;;;;;;5021436;28;20523;-68
2023/08/25 10:37:06;;;;;;;2.20;2.00;;;;;;;;;;5022050;28;20437;-68
2023/08/25 10:39:47;;;;;;;3.63;1.77;;;;;;;;;;5024544;28;20432;-69
2023/08/25 10:42:23;;;;;;;2.08;1.92;;;;;;;;;;5005265;28;20449;-69
2023/08/25 10:44:57;;;;;;;2.00;1.90;;;;;;;;;;5026412;28;20491;-67
2023/08/25 10:47:24;;;;;;;2.38;1.90;;;;;;;;;;5005462;28;20432;-67
2023/08/25 10:50:00;;;;;;;2.38;2.00;;;;;;;;;;5027749;28;20938;-68
2023/08/25 10:52:28;;;;;;;4.20;2.20;;;;;;;;;;5022949;28;20437;-67
2023/08/25 10:54:55;;;;;;;2.55;2.00;;;;;;;;;;5025720;28;20441;-67
2023/08/25 10:57:29;;;;;;;2.10;1.70;;;;;;;;;;5024716;28;20528;-68
2023/08/25 10:59:57;;;;;;;2.03;1.70;;;;;;;;;;5006871;28;20788;-69
2023/08/25 11:02:34;;;;;;;1.80;1.70;;;;;;;;;;5025113;28;20498;-69
2023/08/25 11:05:20;;;;;;;2.00;1.80;;;;;;;;;;5025976;28;20503;-67
2023/08/25 11:07:50;;;;;;;2.05;1.85;;;;;;;;;;5025075;28;20461;-68
2023/08/25 11:10:21;;;;;;;1.92;1.73;;;;;;;;;;5025422;28;20437;-68
2023/08/25 11:12:56;;;;;;;2.38;1.88;;;;;;;;;;5025242;28;20566;-69
2023/08/25 11:15:37;;;;;;;2.40;1.97;;;;;;;;;;5028011;28;20520;-68
2023/08/25 11:18:04;;;;;;;3.83;1.70;;;;;;;;;;5024412;28;20437;-68
2023/08/25 11:20:34;;;;;;;5.18;2.00;;;;;;;;;;5054777;28;20769;-68
2023/08/25 11:23:01;;;;;;;1.92;1.80;;;;;;;;;;5039458;28;20427;-68
2023/08/25 11:25:46;;;;;;;1.80;1.70;;;;;;;;;;5023241;28;20937;-69
2023/08/25 11:28:13;;;;;;;2.75;1.90;;;;;;;;;;5021869;28;20437;-68
2023/08/25 11:30:40;;;;;;;1.90;1.80;;;;;;;;;;5028705;28;20445;-69
2023/08/25 11:33:08;;;;;;;2.28;1.70;;;;;;;;;;5028094;28;20437;-67
2023/08/25 11:35:36;;;;;;;2.43;1.80;;;;;;;;;;5033493;28;20433;-68
2023/08/25 11:38:04;;;;;;;2.73;1.93;;;;;;;;;;5027993;28;20507;-67
2023/08/25 11:40:31;;;;;;;2.72;1.85;;;;;;;;;;5028014;28;20469;-68
2023/08/25 11:42:58;;;;;;;2.83;1.90;;;;;;;;;;5027728;28;20666;-68
2023/08/25 11:45:31;;;;;;;1.98;1.77;;;;;;;;;;5030836;28;20429;-68
2023/08/25 11:47:58;;;;;;;1.90;1.80;;;;;;;;;;5014947;28;20466;-68
2023/08/25 11:50:25;;;;;;;2.55;1.65;;;;;;;;;;5033203;28;20440;-69
2023/08/25 11:52:54;;;;;;;3.65;2.00;;;;;;;;;;5032365;28;20433;-69
2023/08/25 11:55:32;;;;;;;1.80;1.70;;;;;;;;;;5028159;28;20447;-68
2023/08/25 11:58:06;;;;;;;2.30;2.00;;;;;;;;;;5029199;28;20554;-69
2023/08/25 12:00:37;;;;;;;4.73;1.80;;;;;;;;;;5011902;28;20479;-69
2023/08/25 12:03:06;;;;;;;3.15;1.70;;;;;;;;;;5031297;28;20433;-69
2023/08/25 12:05:36;;;;;;;2.88;1.90;;;;;;;;;;5013078;28;21273;-67
2023/08/25 12:08:06;;;;;;;2.20;2.00;;;;;;;;;;5030198;28;20429;-67
2023/08/25 12:10:38;;;;;;;2.87;2.17;;;;;;;;;;5029253;28;20819;-67
2023/08/25 12:13:06;;;;;;;5.28;2.15;;;;;;;;;;5030056;28;20437;-69
2023/08/25 12:15:41;;;;;;;3.10;1.95;;;;;;;;;;5029025;28;20441;-68
2023/08/25 12:18:08;;;;;;;1.93;1.83;;;;;;;;;;5010721;28;20475;-68
2023/08/25 12:20:35;;;;;;;3.30;1.95;;;;;;;;;;5031562;28;21024;-68
2023/08/25 12:23:03;;;;;;;2.15;1.95;;;;;;;;;;5029496;28;20437;-70
2023/08/25 12:25:34;;;;;;;2.13;1.92;;;;;;;;;;5028237;28;20437;-69
2023/08/25 12:28:02;;;;;;;2.95;2.20;;;;;;;;;;5030864;28;20547;-69
2023/08/25 12:30:30;;;;;;;2.57;2.03;;;;;;;;;;5027825;28;20575;-70
2023/08/25 12:32:57;;;;;;;3.03;2.10;;;;;;;;;;5028952;28;20473;-69
2023/08/25 12:35:24;;;;;;;3.85;2.30;;;;;;;;;;5012393;28;21126;-69
2023/08/25 12:37:51;;;;;;;2.30;2.10;;;;;;;;;;5031303;28;20878;-69
2023/08/25 12:40:20;;;;;;;2.33;2.13;;;;;;;;;;5031568;28;21241;-67
2023/08/25 12:42:51;;;;;;;2.25;2.00;;;;;;;;;;5031280;28;20443;-68
2023/08/25 12:45:19;;;;;;;4.57;1.95;;;;;;;;;;5033389;28;20724;-68
2023/08/25 12:47:47;;;;;;;3.20;1.70;;;;;;;;;;5028454;28;20516;-67
2023/08/25 12:50:14;;;;;;;4.00;2.10;;;;;;;;;;5031665;28;20452;-68
2023/08/25 12:52:41;;;;;;;2.05;1.85;;;;;;;;;;5030007;28;20520;-67
2023/08/25 12:55:10;;;;;;;3.35;2.50;;;;;;;;;;5029333;28;20468;-68
2023/08/25 12:57:49;;;;;;;2.90;2.10;;;;;;;;;;5031157;28;20894;-68
2023/08/25 13:00:17;;;;;;;3.70;2.10;;;;;;;;;;5027802;28;20439;-68
2023/08/25 13:02:45;;;;;;;2.08;1.90;;;;;;;;;;5032148;28;20433;-68
2023/08/25 13:05:12;;;;;;;3.87;2.30;;;;;;;;;;5032410;28;20448;-68
2023/08/25 13:07:40;;;;;;;3.05;2.10;;;;;;;;;;5030620;28;20421;-68
2023/08/25 13:10:07;;;;;;;2.35;1.80;;;;;;;;;;5030324;28;20437;-70
2023/08/25 13:12:35;;;;;;;3.15;2.20;;;;;;;;;;5028892;28;20494;-68
2023/08/25 13:15:02;;;;;;;3.92;2.17;;;;;;;;;;5025232;28;20437;-69
2023/08/25 13:17:30;;;;;;;2.63;2.27;;;;;;;;;;5027231;28;20456;-68
2023/08/25 13:19:57;;;;;;;3.20;2.00;;;;;;;;;;5028643;28;20453;-68
2023/08/25 13:22:24;;;;;;;4.47;2.28;;;;;;;;;;5035658;28;20504;-68
2023/08/25 13:24:55;;;;;;;4.47;2.50;;;;;;;;;;5045777;28;20429;-69
2023/08/25 13:27:23;;;;;;;4.53;2.35;;;;;;;;;;5029227;28;20563;-68
2023/08/25 13:29:50;;;;;;;2.40;2.20;;;;;;;;;;5026558;28;20549;-69
2023/08/25 13:32:17;;;;;;;2.60;2.40;;;;;;;;;;5026992;28;20929;-69
2023/08/25 13:34:44;;;;;;;2.45;2.25;;;;;;;;;;5028889;28;20485;-70
2023/08/25 13:37:11;;;;;;;3.80;2.80;;;;;;;;;;5027623;28;20429;-71
2023/08/25 13:39:40;;;;;;;2.60;2.40;;;;;;;;;;5027139;28;20444;-69
2023/08/25 13:42:08;;;;;;;4.00;2.50;;;;;;;;;;5017605;28;20437;-68
2023/08/25 13:44:38;;;;;;;3.97;2.30;;;;;;;;;;5007464;28;21006;-69
2023/08/25 13:47:09;;;;;;;2.97;2.25;;;;;;;;;;5048890;28;20431;-70
2023/08/25 13:49:37;;;;;;;3.08;2.78;;;;;;;;;;5027550;28;21066;-69
2023/08/25 13:52:04;;;;;;;6.15;2.58;;;;;;;;;;5040475;28;20541;-70
2023/08/25 13:54:38;;;;;;;3.70;2.40;;;;;;;;;;5058205;28;20512;-69
2023/08/25 13:57:08;;;;;;;6.32;2.63;;;;;;;;;;5041696;28;20433;-68
2023/08/25 13:59:37;;;;;;;3.53;2.60;;;;;;;;;;5049224;28;20436;-69
2023/08/25 14:02:06;;;;;;;4.45;2.53;;;;;;;;;;5043226;28;20441;-70
2023/08/25 14:04:36;;;;;;;3.60;2.50;;;;;;;;;;5041145;28;20907;-70
2023/08/25 14:07:03;;;;;;;2.60;2.40;;;;;;;;;;5040049;28;20512;-68
2023/08/25 14:09:30;;;;;;;3.78;2.67;;;;;;;;;;5046966;28;20472;-70
2023/08/25 14:11:58;;;;;;;5.07;2.65;;;;;;;;;;5040644;28;20433;-69
2023/08/25 14:14:26;;;;;;;4.93;2.50;;;;;;;;;;5032910;28;20437;-69
2023/08/25 14:16:53;;;;;;;5.03;2.88;;;;;;;;;;5047693;28;20471;-71
2023/08/25 14:19:20;;;;;;;5.70;2.83;;;;;;;;;;5052193;28;20520;-68
2023/08/25 14:21:49;;;;;;;4.20;2.80;;;;;;;;;;5052284;28;20454;-69
2023/08/25 14:24:18;;;;;;;3.88;2.63;;;;;;;;;;5026430;28;20571;-68
2023/08/25 14:26:45;;;;;;;4.45;2.80;;;;;;;;;;5031191;28;20437;-68
2023/08/25 14:29:13;;;;;;;5.28;3.00;;;;;;;;;;5033397;28;20434;-67
2023/08/25 14:31:40;;;;;;;4.85;3.10;;;;;;;;;;5034201;28;20460;-69
2023/08/25 14:34:08;;;;;;;6.45;3.13;;;;;;;;;;5029390;28;20575;-69
2023/08/25 14:36:36;;;;;;;4.80;3.10;;;;;;;;;;5031308;28;20441;-70